sensor_id;sensor_type;location;lat;lon;timestamp;pressure;altitude;pressure_sealevel;temperature;humidity
39223;BME280;24936;46.328;11.026;2023-02-28T00:00:26;94498.47;;;-0.81;67.93
39223;BME280;24936;46.328;11.026;2023-02-28T00:02:52;94503.69;;;-0.64;66.98
39223;BME280;24936;46.328;11.026;2023-02-28T00:05:20;94495.44;;;-0.72;66.59
39223;BME280;24936;46.328;11.026;2023-02-28T00:07:46;94504.03;;;-0.90;68.11
39223;BME280;24936;46.328;11.026;2023-02-28T00:10:15;94510.53;;;-1.01;68.99
39223;BME280;24936;46.328;11.026;2023-02-28T00:12:41;94508.38;;;-1.10;69.86
39223;BME280;24936;46.328;11.026;2023-02-28T00:15:09;94508.38;;;-1.10;69.97
39223;BME280;24936;46.328;11.026;2023-02-28T00:17:36;94507.47;;;-1.09;69.84
39223;BME280;24936;46.328;11.026;2023-02-28T00:20:03;94498.81;;;-1.08;69.16
39223;BME280;24936;46.328;11.026;2023-02-28T00:22:30;94505.44;;;-1.21;69.12
39223;BME280;24936;46.328;11.026;2023-02-28T00:24:56;94516.31;;;-1.34;69.78
39223;BME280;24936;46.328;11.026;2023-02-28T00:27:22;94511.22;;;-1.16;69.07
39223;BME280;24936;46.328;11.026;2023-02-28T00:29:47;94514.53;;;-1.33;69.41
39223;BME280;24936;46.328;11.026;2023-02-28T00:32:13;94510.94;;;-1.29;69.33
39223;BME280;24936;46.328;11.026;2023-02-28T00:34:38;94519.38;;;-1.26;69.09
39223;BME280;24936;46.328;11.026;2023-02-28T00:37:08;94514.69;;;-1.17;68.64
39223;BME280;24936;46.328;11.026;2023-02-28T00:39:35;94520.94;;;-1.42;69.71
39223;BME280;24936;46.328;11.026;2023-02-28T00:42:02;94522.00;;;-1.67;70.39
39223;BME280;24936;46.328;11.026;2023-02-28T00:44:28;94518.84;;;-1.74;70.84
39223;BME280;24936;46.328;11.026;2023-02-28T00:46:54;94521.22;;;-1.90;71.80
39223;BME280;24936;46.328;11.026;2023-02-28T00:49:20;94522.50;;;-1.79;71.94
39223;BME280;24936;46.328;11.026;2023-02-28T00:51:46;94515.56;;;-1.77;71.65
39223;BME280;24936;46.328;11.026;2023-02-28T00:54:11;94527.59;;;-1.78;71.44
39223;BME280;24936;46.328;11.026;2023-02-28T00:56:37;94524.31;;;-1.81;71.49
39223;BME280;24936;46.328;11.026;2023-02-28T00:59:02;94524.72;;;-1.91;71.90
39223;BME280;24936;46.328;11.026;2023-02-28T01:01:28;94531.59;;;-1.91;71.91
39223;BME280;24936;46.328;11.026;2023-02-28T01:03:53;94530.88;;;-1.95;72.42
39223;BME280;24936;46.328;11.026;2023-02-28T01:06:18;94533.34;;;-1.92;72.61
39223;BME280;24936;46.328;11.026;2023-02-28T01:08:44;94541.78;;;-1.88;72.24
39223;BME280;24936;46.328;11.026;2023-02-28T01:11:12;94535.41;;;-1.59;71.10
39223;BME280;24936;46.328;11.026;2023-02-28T01:13:38;94533.03;;;-1.43;70.30
39223;BME280;24936;46.328;11.026;2023-02-28T01:16:03;94538.25;;;-1.44;69.83
39223;BME280;24936;46.328;11.026;2023-02-28T01:18:29;94531.97;;;-1.39;69.60
39223;BME280;24936;46.328;11.026;2023-02-28T01:20:54;94541.59;;;-1.42;69.93
39223;BME280;24936;46.328;11.026;2023-02-28T01:23:21;94541.88;;;-1.48;70.19
39223;BME280;24936;46.328;11.026;2023-02-28T01:25:49;94540.31;;;-1.52;70.74
39223;BME280;24936;46.328;11.026;2023-02-28T01:28:14;94531.31;;;-1.63;72.03
39223;BME280;24936;46.328;11.026;2023-02-28T01:30:39;94536.78;;;-1.71;72.30
39223;BME280;24936;46.328;11.026;2023-02-28T01:33:05;94544.31;;;-1.66;71.87
39223;BME280;24936;46.328;11.026;2023-02-28T01:35:34;94539.28;;;-1.69;72.30
39223;BME280;24936;46.328;11.026;2023-02-28T01:38:00;94536.97;;;-1.55;71.31
39223;BME280;24936;46.328;11.026;2023-02-28T01:40:25;94539.88;;;-1.42;70.54
39223;BME280;24936;46.328;11.026;2023-02-28T01:42:51;94542.06;;;-1.32;70.21
39223;BME280;24936;46.328;11.026;2023-02-28T01:45:30;94546.38;;;-1.33;70.53
39223;BME280;24936;46.328;11.026;2023-02-28T01:48:02;94549.72;;;-1.31;69.93
39223;BME280;24936;46.328;11.026;2023-02-28T01:50:30;94557.63;;;-1.34;70.47
39223;BME280;24936;46.328;11.026;2023-02-28T01:53:00;94558.66;;;-1.38;71.43
39223;BME280;24936;46.328;11.026;2023-02-28T01:55:27;94548.44;;;-1.41;71.46
39223;BME280;24936;46.328;11.026;2023-02-28T01:57:56;94550.13;;;-1.40;71.61
39223;BME280;24936;46.328;11.026;2023-02-28T02:00:25;94548.81;;;-1.30;70.72
39223;BME280;24936;46.328;11.026;2023-02-28T02:02:57;94553.59;;;-1.20;69.74
39223;BME280;24936;46.328;11.026;2023-02-28T02:05:29;94548.50;;;-1.22;70.50
39223;BME280;24936;46.328;11.026;2023-02-28T02:08:00;94547.78;;;-1.26;70.97
39223;BME280;24936;46.328;11.026;2023-02-28T02:10:36;94550.38;;;-1.26;70.79
39223;BME280;24936;46.328;11.026;2023-02-28T02:13:19;94552.13;;;-1.26;70.67
39223;BME280;24936;46.328;11.026;2023-02-28T02:29:44;94536.31;;;-1.39;72.46
39223;BME280;24936;46.328;11.026;2023-02-28T02:37:47;94545.47;;;-1.32;73.58
39223;BME280;24936;46.328;11.026;2023-02-28T02:40:17;94548.19;;;-1.35;72.64
39223;BME280;24936;46.328;11.026;2023-02-28T02:45:51;94542.63;;;-1.26;71.26
39223;BME280;24936;46.328;11.026;2023-02-28T02:48:19;94551.88;;;-1.41;72.94
39223;BME280;24936;46.328;11.026;2023-02-28T02:50:54;94555.25;;;-1.59;74.05
39223;BME280;24936;46.328;11.026;2023-02-28T02:53:25;94564.84;;;-1.63;74.62
39223;BME280;24936;46.328;11.026;2023-02-28T02:55:54;94557.91;;;-1.61;74.02
39223;BME280;24936;46.328;11.026;2023-02-28T02:58:27;94550.16;;;-1.61;73.25
39223;BME280;24936;46.328;11.026;2023-02-28T03:00:57;94555.03;;;-1.55;72.44
39223;BME280;24936;46.328;11.026;2023-02-28T03:03:24;94557.13;;;-1.63;73.44
39223;BME280;24936;46.328;11.026;2023-02-28T03:05:57;94548.59;;;-1.65;73.17
39223;BME280;24936;46.328;11.026;2023-02-28T03:08:23;94566.84;;;-1.49;71.72
39223;BME280;24936;46.328;11.026;2023-02-28T03:10:59;94557.75;;;-1.58;72.00
39223;BME280;24936;46.328;11.026;2023-02-28T03:18:56;94551.16;;;-1.65;72.99
39223;BME280;24936;46.328;11.026;2023-02-28T03:27:10;94566.28;;;-1.76;74.30
39223;BME280;24936;46.328;11.026;2023-02-28T03:29:49;94577.38;;;-1.74;74.24
39223;BME280;24936;46.328;11.026;2023-02-28T03:32:26;94573.34;;;-1.81;74.65
39223;BME280;24936;46.328;11.026;2023-02-28T03:35:02;94574.00;;;-1.76;74.43
39223;BME280;24936;46.328;11.026;2023-02-28T03:37:33;94573.16;;;-1.77;74.87
39223;BME280;24936;46.328;11.026;2023-02-28T03:40:23;94584.19;;;-1.73;74.64
39223;BME280;24936;46.328;11.026;2023-02-28T03:42:55;94573.16;;;-1.77;75.02
39223;BME280;24936;46.328;11.026;2023-02-28T03:45:27;94575.81;;;-1.78;74.21
39223;BME280;24936;46.328;11.026;2023-02-28T03:53:34;94580.75;;;-1.94;76.04
39223;BME280;24936;46.328;11.026;2023-02-28T03:56:15;94585.06;;;-1.95;75.64
39223;BME280;24936;46.328;11.026;2023-02-28T03:58:49;94593.81;;;-1.99;75.48
39223;BME280;24936;46.328;11.026;2023-02-28T04:01:35;94598.28;;;-2.03;75.70
39223;BME280;24936;46.328;11.026;2023-02-28T04:04:03;94593.28;;;-1.85;75.04
39223;BME280;24936;46.328;11.026;2023-02-28T04:06:31;94594.91;;;-1.82;74.54
39223;BME280;24936;46.328;11.026;2023-02-28T04:08:57;94600.56;;;-1.95;75.31
39223;BME280;24936;46.328;11.026;2023-02-28T04:11:44;94592.88;;;-1.96;75.12
39223;BME280;24936;46.328;11.026;2023-02-28T04:14:09;94592.75;;;-1.93;74.66
39223;BME280;24936;46.328;11.026;2023-02-28T04:16:35;94600.06;;;-1.82;74.06
39223;BME280;24936;46.328;11.026;2023-02-28T04:19:05;94603.31;;;-2.00;74.49
39223;BME280;24936;46.328;11.026;2023-02-28T04:21:33;94611.00;;;-1.98;75.55
39223;BME280;24936;46.328;11.026;2023-02-28T04:23:59;94607.78;;;-2.03;75.56
39223;BME280;24936;46.328;11.026;2023-02-28T04:26:28;94609.91;;;-2.15;76.45
39223;BME280;24936;46.328;11.026;2023-02-28T04:28:55;94614.34;;;-2.18;76.91
39223;BME280;24936;46.328;11.026;2023-02-28T04:31:21;94615.31;;;-2.21;76.52
39223;BME280;24936;46.328;11.026;2023-02-28T04:33:46;94623.94;;;-2.22;76.99
39223;BME280;24936;46.328;11.026;2023-02-28T04:36:12;94620.91;;;-2.09;76.42
39223;BME280;24936;46.328;11.026;2023-02-28T04:38:39;94624.06;;;-2.03;76.08
39223;BME280;24936;46.328;11.026;2023-02-28T04:41:05;94625.03;;;-2.05;76.69
39223;BME280;24936;46.328;11.026;2023-02-28T04:43:31;94619.69;;;-2.01;76.14
39223;BME280;24936;46.328;11.026;2023-02-28T04:46:00;94627.19;;;-1.94;75.74
39223;BME280;24936;46.328;11.026;2023-02-28T04:48:28;94632.53;;;-1.99;75.98
39223;BME280;24936;46.328;11.026;2023-02-28T04:50:54;94626.25;;;-1.92;75.25
39223;BME280;24936;46.328;11.026;2023-02-28T04:53:20;94637.16;;;-1.85;74.93
39223;BME280;24936;46.328;11.026;2023-02-28T04:55:46;94629.09;;;-1.77;74.30
39223;BME280;24936;46.328;11.026;2023-02-28T04:58:12;94631.50;;;-1.73;73.98
39223;BME280;24936;46.328;11.026;2023-02-28T05:00:38;94639.84;;;-1.66;74.04
39223;BME280;24936;46.328;11.026;2023-02-28T05:03:03;94636.25;;;-1.62;73.61
39223;BME280;24936;46.328;11.026;2023-02-28T05:05:29;94637.00;;;-1.60;73.58
39223;BME280;24936;46.328;11.026;2023-02-28T05:07:54;94630.81;;;-1.56;73.49
39223;BME280;24936;46.328;11.026;2023-02-28T05:10:21;94631.72;;;-1.57;73.66
39223;BME280;24936;46.328;11.026;2023-02-28T05:12:47;94640.78;;;-1.46;73.81
39223;BME280;24936;46.328;11.026;2023-02-28T05:15:14;94636.75;;;-1.54;74.24
39223;BME280;24936;46.328;11.026;2023-02-28T05:17:40;94632.19;;;-1.47;73.61
39223;BME280;24936;46.328;11.026;2023-02-28T05:20:07;94636.63;;;-1.50;73.59
39223;BME280;24936;46.328;11.026;2023-02-28T05:22:34;94630.63;;;-1.51;73.19
39223;BME280;24936;46.328;11.026;2023-02-28T05:24:59;94640.91;;;-1.49;73.39
39223;BME280;24936;46.328;11.026;2023-02-28T05:27:24;94637.59;;;-1.53;73.66
39223;BME280;24936;46.328;11.026;2023-02-28T05:29:50;94640.78;;;-1.46;73.78
39223;BME280;24936;46.328;11.026;2023-02-28T05:32:15;94639.25;;;-1.52;73.53
39223;BME280;24936;46.328;11.026;2023-02-28T05:34:41;94633.06;;;-1.48;73.41
39223;BME280;24936;46.328;11.026;2023-02-28T05:37:11;94636.75;;;-1.54;73.55
39223;BME280;24936;46.328;11.026;2023-02-28T05:39:37;94635.16;;;-1.56;74.01
39223;BME280;24936;46.328;11.026;2023-02-28T05:42:04;94635.19;;;-1.58;73.84
39223;BME280;24936;46.328;11.026;2023-02-28T05:44:29;94640.34;;;-1.58;74.12
39223;BME280;24936;46.328;11.026;2023-02-28T05:46:54;94638.69;;;-1.59;74.42
39223;BME280;24936;46.328;11.026;2023-02-28T05:49:20;94637.38;;;-1.69;74.28
39223;BME280;24936;46.328;11.026;2023-02-28T05:51:45;94639.06;;;-1.68;74.43
39223;BME280;24936;46.328;11.026;2023-02-28T05:54:11;94640.03;;;-1.71;74.47
39223;BME280;24936;46.328;11.026;2023-02-28T05:56:36;94637.38;;;-1.69;74.46
39223;BME280;24936;46.328;11.026;2023-02-28T05:59:05;94643.69;;;-1.76;74.46
39223;BME280;24936;46.328;11.026;2023-02-28T06:01:41;94643.03;;;-1.81;74.58
39223;BME280;24936;46.328;11.026;2023-02-28T06:04:09;94649.19;;;-1.86;75.01
39223;BME280;24936;46.328;11.026;2023-02-28T06:06:35;94651.06;;;-1.89;75.40
39223;BME280;24936;46.328;11.026;2023-02-28T06:09:01;94649.50;;;-1.93;75.19
39223;BME280;24936;46.328;11.026;2023-02-28T06:11:27;94653.34;;;-1.81;74.67
39223;BME280;24936;46.328;11.026;2023-02-28T06:13:54;94659.97;;;-1.74;74.62
39223;BME280;24936;46.328;11.026;2023-02-28T06:16:20;94661.28;;;-1.64;73.75
39223;BME280;24936;46.328;11.026;2023-02-28T06:18:46;94658.44;;;-1.58;73.21
39223;BME280;24936;46.328;11.026;2023-02-28T06:21:12;94654.16;;;-1.59;73.60
39223;BME280;24936;46.328;11.026;2023-02-28T06:23:37;94659.31;;;-1.59;73.43
39223;BME280;24936;46.328;11.026;2023-02-28T06:26:03;94657.00;;;-1.65;73.99
39223;BME280;24936;46.328;11.026;2023-02-28T06:28:29;94651.06;;;-1.67;73.74
39223;BME280;24936;46.328;11.026;2023-02-28T06:30:54;94655.44;;;-1.69;74.07
39223;BME280;24936;46.328;11.026;2023-02-28T06:33:20;94658.13;;;-1.72;74.79
39223;BME280;24936;46.328;11.026;2023-02-28T06:35:54;94666.63;;;-1.91;74.79
39223;BME280;24936;46.328;11.026;2023-02-28T06:38:20;94664.94;;;-1.92;75.36
39223;BME280;24936;46.328;11.026;2023-02-28T06:40:53;94665.47;;;-1.83;75.15
39223;BME280;24936;46.328;11.026;2023-02-28T06:43:19;94661.88;;;-1.79;74.87
39223;BME280;24936;46.328;11.026;2023-02-28T06:45:44;94661.75;;;-1.76;75.01
39223;BME280;24936;46.328;11.026;2023-02-28T06:48:10;94668.22;;;-1.66;74.21
39223;BME280;24936;46.328;11.026;2023-02-28T06:50:36;94676.34;;;-1.75;74.42
39223;BME280;24936;46.328;11.026;2023-02-28T06:53:01;94673.31;;;-1.87;75.77
39223;BME280;24936;46.328;11.026;2023-02-28T06:55:26;94672.38;;;-1.84;75.30
39223;BME280;24936;46.328;11.026;2023-02-28T06:57:52;94671.66;;;-1.88;75.77
39223;BME280;24936;46.328;11.026;2023-02-28T07:00:17;94685.63;;;-1.93;76.23
39223;BME280;24936;46.328;11.026;2023-02-28T07:02:43;94683.72;;;-1.88;76.57
39223;BME280;24936;46.328;11.026;2023-02-28T07:05:08;94680.63;;;-1.74;75.99
39223;BME280;24936;46.328;11.026;2023-02-28T07:07:34;94689.00;;;-1.69;76.06
39223;BME280;24936;46.328;11.026;2023-02-28T07:10:01;94686.69;;;-1.32;74.42
39223;BME280;24936;46.328;11.026;2023-02-28T07:12:27;94682.63;;;-1.38;73.57
39223;BME280;24936;46.328;11.026;2023-02-28T07:14:52;94684.63;;;-1.24;73.40
39223;BME280;24936;46.328;11.026;2023-02-28T07:17:19;94676.03;;;-1.04;72.15
39223;BME280;24936;46.328;11.026;2023-02-28T07:19:44;94665.63;;;-0.82;71.00
39223;BME280;24936;46.328;11.026;2023-02-28T07:22:10;94676.59;;;-0.77;70.33
39223;BME280;24936;46.328;11.026;2023-02-28T07:24:35;94674.84;;;-0.55;69.48
39223;BME280;24936;46.328;11.026;2023-02-28T07:27:01;94679.22;;;-0.57;69.88
39223;BME280;24936;46.328;11.026;2023-02-28T07:29:26;94672.47;;;-0.60;69.88
39223;BME280;24936;46.328;11.026;2023-02-28T07:31:52;94675.53;;;-0.52;69.58
39223;BME280;24936;46.328;11.026;2023-02-28T07:34:19;94675.06;;;-0.41;68.65
39223;BME280;24936;46.328;11.026;2023-02-28T07:36:44;94665.19;;;-0.33;68.55
39223;BME280;24936;46.328;11.026;2023-02-28T07:39:10;94665.00;;;-0.09;68.27
39223;BME280;24936;46.328;11.026;2023-02-28T07:41:35;94664.31;;;0.07;68.20
39223;BME280;24936;46.328;11.026;2023-02-28T07:44:08;94659.06;;;0.45;68.11
39223;BME280;24936;46.328;11.026;2023-02-28T07:46:34;94668.97;;;0.54;67.42
39223;BME280;24936;46.328;11.026;2023-02-28T07:49:01;94667.41;;;0.50;67.14
39223;BME280;24936;46.328;11.026;2023-02-28T07:51:31;94668.88;;;1.26;65.21
39223;BME280;24936;46.328;11.026;2023-02-28T07:53:57;94663.09;;;2.20;61.63
39223;BME280;24936;46.328;11.026;2023-02-28T07:56:22;94665.91;;;2.48;59.56
39223;BME280;24936;46.328;11.026;2023-02-28T07:58:47;94665.50;;;1.91;61.57
39223;BME280;24936;46.328;11.026;2023-02-28T08:01:13;94675.63;;;1.46;62.33
39223;BME280;24936;46.328;11.026;2023-02-28T08:03:40;94668.47;;;1.34;63.20
39223;BME280;24936;46.328;11.026;2023-02-28T08:06:07;94675.69;;;1.62;62.53
39223;BME280;24936;46.328;11.026;2023-02-28T08:08:33;94677.06;;;1.86;61.66
39223;BME280;24936;46.328;11.026;2023-02-28T08:11:02;94671.22;;;1.98;62.61
39223;BME280;24936;46.328;11.026;2023-02-28T08:13:29;94674.97;;;2.08;61.89
39223;BME280;24936;46.328;11.026;2023-02-28T08:15:54;94670.69;;;2.07;62.09
39223;BME280;24936;46.328;11.026;2023-02-28T08:18:21;94671.47;;;1.93;61.63
39223;BME280;24936;46.328;11.026;2023-02-28T08:20:46;94668.44;;;1.51;62.85
39223;BME280;24936;46.328;11.026;2023-02-28T08:23:12;94666.50;;;1.39;64.55
39223;BME280;24936;46.328;11.026;2023-02-28T08:25:37;94666.25;;;1.44;63.98
39223;BME280;24936;46.328;11.026;2023-02-28T08:28:03;94665.56;;;1.40;62.91
39223;BME280;24936;46.328;11.026;2023-02-28T08:30:28;94665.56;;;1.74;62.08
39223;BME280;24936;46.328;11.026;2023-02-28T08:32:53;94664.75;;;1.73;62.50
39223;BME280;24936;46.328;11.026;2023-02-28T08:35:20;94657.06;;;1.54;61.95
39223;BME280;24936;46.328;11.026;2023-02-28T08:37:49;94661.72;;;1.47;62.05
39223;BME280;24936;46.328;11.026;2023-02-28T08:40:15;94670.97;;;1.53;62.32
39223;BME280;24936;46.328;11.026;2023-02-28T08:42:46;94661.19;;;1.58;62.21
39223;BME280;24936;46.328;11.026;2023-02-28T08:45:13;94661.38;;;1.71;62.32
39223;BME280;24936;46.328;11.026;2023-02-28T08:47:39;94657.38;;;1.81;61.40
39223;BME280;24936;46.328;11.026;2023-02-28T08:50:05;94666.06;;;1.96;62.72
39223;BME280;24936;46.328;11.026;2023-02-28T08:52:31;94657.88;;;2.04;61.58
39223;BME280;24936;46.328;11.026;2023-02-28T08:54:56;94658.34;;;2.59;59.94
39223;BME280;24936;46.328;11.026;2023-02-28T08:57:22;94657.88;;;3.28;58.24
39223;BME280;24936;46.328;11.026;2023-02-28T08:59:47;94662.66;;;4.63;53.55
39223;BME280;24936;46.328;11.026;2023-02-28T09:02:14;94660.13;;;6.31;48.31
39223;BME280;24936;46.328;11.026;2023-02-28T09:04:40;94651.31;;;7.04;45.08
39223;BME280;24936;46.328;11.026;2023-02-28T09:07:05;94654.63;;;7.31;43.75
39223;BME280;24936;46.328;11.026;2023-02-28T09:09:31;94658.59;;;7.01;42.74
39223;BME280;24936;46.328;11.026;2023-02-28T09:11:56;94652.31;;;7.96;42.50
39223;BME280;24936;46.328;11.026;2023-02-28T09:14:22;94655.44;;;8.79;39.81
39223;BME280;24936;46.328;11.026;2023-02-28T09:16:48;94646.25;;;8.18;39.43
39223;BME280;24936;46.328;11.026;2023-02-28T09:19:14;94652.97;;;9.74;37.15
39223;BME280;24936;46.328;11.026;2023-02-28T09:21:39;94644.16;;;10.16;36.56
39223;BME280;24936;46.328;11.026;2023-02-28T09:24:05;94646.41;;;10.81;34.60
39223;BME280;24936;46.328;11.026;2023-02-28T09:26:30;94641.00;;;10.82;33.46
39223;BME280;24936;46.328;11.026;2023-02-28T09:28:56;94649.91;;;11.30;35.10
39223;BME280;24936;46.328;11.026;2023-02-28T09:31:26;94626.53;;;12.13;33.73
39223;BME280;24936;46.328;11.026;2023-02-28T09:33:54;94633.53;;;11.07;32.84
39223;BME280;24936;46.328;11.026;2023-02-28T09:36:21;94637.56;;;11.21;32.59
39223;BME280;24936;46.328;11.026;2023-02-28T09:38:47;94635.59;;;10.64;32.80
39223;BME280;24936;46.328;11.026;2023-02-28T09:41:15;94640.59;;;11.93;32.73
39223;BME280;24936;46.328;11.026;2023-02-28T09:43:46;94623.69;;;12.80;32.19
39223;BME280;24936;46.328;11.026;2023-02-28T09:46:32;94636.97;;;12.14;30.21
39223;BME280;24936;46.328;11.026;2023-02-28T09:49:22;94625.59;;;14.21;27.93
39223;BME280;24936;46.328;11.026;2023-02-28T09:52:07;94625.22;;;11.89;29.77
39223;BME280;24936;46.328;11.026;2023-02-28T09:54:35;94624.84;;;12.49;31.87
39223;BME280;24936;46.328;11.026;2023-02-28T10:02:17;94626.22;;;11.78;30.38
39223;BME280;24936;46.328;11.026;2023-02-28T10:09:56;94621.28;;;11.65;31.46
39223;BME280;24936;46.328;11.026;2023-02-28T10:12:22;94609.13;;;12.02;30.10
39223;BME280;24936;46.328;11.026;2023-02-28T10:14:51;94603.50;;;12.15;30.28
39223;BME280;24936;46.328;11.026;2023-02-28T10:17:22;94611.59;;;12.03;30.50
39223;BME280;24936;46.328;11.026;2023-02-28T10:22:19;94608.13;;;12.03;29.98
39223;BME280;24936;46.328;11.026;2023-02-28T10:24:51;94609.00;;;12.21;29.49
39223;BME280;24936;46.328;11.026;2023-02-28T10:27:19;94608.72;;;12.24;30.48
39223;BME280;24936;46.328;11.026;2023-02-28T10:29:53;94603.56;;;11.95;31.28
39223;BME280;24936;46.328;11.026;2023-02-28T10:32:23;94604.50;;;12.60;29.82
39223;BME280;24936;46.328;11.026;2023-02-28T10:34:57;94602.41;;;12.81;28.84
39223;BME280;24936;46.328;11.026;2023-02-28T10:37:24;94601.97;;;12.40;29.39
39223;BME280;24936;46.328;11.026;2023-02-28T10:39:49;94597.19;;;12.53;29.47
39223;BME280;24936;46.328;11.026;2023-02-28T10:42:27;94601.06;;;12.95;30.47
39223;BME280;24936;46.328;11.026;2023-02-28T10:45:14;94599.78;;;11.98;31.09
39223;BME280;24936;46.328;11.026;2023-02-28T10:47:56;94598.25;;;12.05;30.25
39223;BME280;24936;46.328;11.026;2023-02-28T10:50:44;94599.00;;;10.61;32.27
39223;BME280;24936;46.328;11.026;2023-02-28T10:56:12;94597.03;;;10.44;31.58
39223;BME280;24936;46.328;11.026;2023-02-28T10:58:59;94602.06;;;11.25;30.70
39223;BME280;24936;46.328;11.026;2023-02-28T11:03:57;94594.84;;;11.08;31.88
39223;BME280;24936;46.328;11.026;2023-02-28T11:06:29;94589.75;;;11.63;29.43
39223;BME280;24936;46.328;11.026;2023-02-28T11:08:59;94576.81;;;11.80;29.17
39223;BME280;24936;46.328;11.026;2023-02-28T11:11:28;94569.84;;;12.45;28.85
39223;BME280;24936;46.328;11.026;2023-02-28T11:13:56;94580.47;;;12.07;29.21
39223;BME280;24936;46.328;11.026;2023-02-28T11:16:31;94565.50;;;12.53;29.28
39223;BME280;24936;46.328;11.026;2023-02-28T11:18:58;94564.06;;;11.75;29.61
39223;BME280;24936;46.328;11.026;2023-02-28T11:21:27;94569.03;;;11.41;30.83
39223;BME280;24936;46.328;11.026;2023-02-28T11:24:24;94562.00;;;12.35;27.88
39223;BME280;24936;46.328;11.026;2023-02-28T11:26:53;94557.66;;;13.60;27.33
39223;BME280;24936;46.328;11.026;2023-02-28T11:29:27;94553.28;;;13.51;26.51
39223;BME280;24936;46.328;11.026;2023-02-28T11:34:37;94549.06;;;12.96;28.72
39223;BME280;24936;46.328;11.026;2023-02-28T11:37:03;94554.53;;;11.65;29.44
39223;BME280;24936;46.328;11.026;2023-02-28T11:39:31;94546.06;;;11.61;30.46
39223;BME280;24936;46.328;11.026;2023-02-28T11:50:42;94537.97;;;11.72;29.73
39223;BME280;24936;46.328;11.026;2023-02-28T12:17:33;94504.94;;;11.78;28.55
39223;BME280;24936;46.328;11.026;2023-02-28T12:20:26;94495.16;;;12.89;26.95
39223;BME280;24936;46.328;11.026;2023-02-28T12:27:57;94491.88;;;13.66;27.82
39223;BME280;24936;46.328;11.026;2023-02-28T12:30:32;94487.34;;;13.23;27.18
39223;BME280;24936;46.328;11.026;2023-02-28T12:33:12;94479.97;;;13.35;26.47
39223;BME280;24936;46.328;11.026;2023-02-28T12:35:59;94478.53;;;13.75;26.17
39223;BME280;24936;46.328;11.026;2023-02-28T12:38:31;94475.09;;;12.96;27.21
39223;BME280;24936;46.328;11.026;2023-02-28T12:41:04;94476.50;;;13.35;29.51
39223;BME280;24936;46.328;11.026;2023-02-28T12:44:19;94464.50;;;14.59;24.61
39223;BME280;24936;46.328;11.026;2023-02-28T12:48:59;94457.59;;;13.48;27.87
39223;BME280;24936;46.328;11.026;2023-02-28T12:51:26;94455.59;;;13.84;25.46
39223;BME280;24936;46.328;11.026;2023-02-28T12:57:07;94441.56;;;14.85;24.83
39223;BME280;24936;46.328;11.026;2023-02-28T12:59:51;94433.59;;;15.57;24.17
39223;BME280;24936;46.328;11.026;2023-02-28T13:08:20;94422.94;;;13.59;26.36
39223;BME280;24936;46.328;11.026;2023-02-28T13:10:46;94428.44;;;14.25;24.06
39223;BME280;24936;46.328;11.026;2023-02-28T13:13:18;94423.13;;;15.24;25.77
39223;BME280;24936;46.328;11.026;2023-02-28T13:16:04;94417.94;;;13.99;25.51
39223;BME280;24936;46.328;11.026;2023-02-28T13:18:36;94415.94;;;13.84;26.13
39223;BME280;24936;46.328;11.026;2023-02-28T13:21:06;94409.44;;;14.88;27.10
39223;BME280;24936;46.328;11.026;2023-02-28T13:34:41;94400.09;;;13.50;25.83
39223;BME280;24936;46.328;11.026;2023-02-28T13:47:52;94395.50;;;13.52;27.00
39223;BME280;24936;46.328;11.026;2023-02-28T13:55:53;94388.59;;;12.72;26.22
39223;BME280;24936;46.328;11.026;2023-02-28T14:07:06;94381.34;;;13.00;25.83
39223;BME280;24936;46.328;11.026;2023-02-28T14:09:36;94380.03;;;13.04;27.07
39223;BME280;24936;46.328;11.026;2023-02-28T14:18:04;94370.59;;;12.67;26.60
39223;BME280;24936;46.328;11.026;2023-02-28T14:20:32;94368.63;;;12.69;26.84
39223;BME280;24936;46.328;11.026;2023-02-28T14:23:03;94361.19;;;12.02;27.31
39223;BME280;24936;46.328;11.026;2023-02-28T14:25:40;94372.78;;;12.09;28.35
39223;BME280;24936;46.328;11.026;2023-02-28T14:31:20;94361.13;;;11.66;27.56
39223;BME280;24936;46.328;11.026;2023-02-28T14:36:42;94359.22;;;12.04;28.39
39223;BME280;24936;46.328;11.026;2023-02-28T14:39:17;94357.97;;;11.80;27.14
39223;BME280;24936;46.328;11.026;2023-02-28T14:41:44;94370.63;;;11.58;31.42
39223;BME280;24936;46.328;11.026;2023-02-28T14:44:20;94364.47;;;11.12;28.98
39223;BME280;24936;46.328;11.026;2023-02-28T14:46:48;94366.16;;;11.03;29.22
39223;BME280;24936;46.328;11.026;2023-02-28T14:52:24;94357.25;;;11.14;29.47
39223;BME280;24936;46.328;11.026;2023-02-28T14:54:55;94355.09;;;10.99;30.65
39223;BME280;24936;46.328;11.026;2023-02-28T15:02:40;94362.63;;;9.98;30.83
39223;BME280;24936;46.328;11.026;2023-02-28T15:07:35;94360.00;;;10.07;31.58
39223;BME280;24936;46.328;11.026;2023-02-28T15:12:34;94353.88;;;10.17;30.49
39223;BME280;24936;46.328;11.026;2023-02-28T15:15:00;94358.88;;;10.39;31.42
39223;BME280;24936;46.328;11.026;2023-02-28T15:17:26;94351.09;;;10.18;29.82
39223;BME280;24936;46.328;11.026;2023-02-28T15:19:53;94345.84;;;10.28;29.95
39223;BME280;24936;46.328;11.026;2023-02-28T15:22:28;94348.09;;;10.13;30.70
39223;BME280;24936;46.328;11.026;2023-02-28T15:24:56;94348.88;;;10.33;28.40
39223;BME280;24936;46.328;11.026;2023-02-28T15:27:27;94341.00;;;10.14;28.83
39223;BME280;24936;46.328;11.026;2023-02-28T15:29:57;94353.78;;;10.08;30.07
39223;BME280;24936;46.328;11.026;2023-02-28T15:32:31;94350.41;;;10.26;30.43
39223;BME280;24936;46.328;11.026;2023-02-28T15:34:58;94345.88;;;10.08;30.19
39223;BME280;24936;46.328;11.026;2023-02-28T15:39:55;94346.28;;;9.84;30.73
39223;BME280;24936;46.328;11.026;2023-02-28T15:42:23;94341.00;;;9.45;30.68
39223;BME280;24936;46.328;11.026;2023-02-28T15:44:52;94348.31;;;8.60;32.41
39223;BME280;24936;46.328;11.026;2023-02-28T15:47:22;94350.53;;;8.22;33.39
39223;BME280;24936;46.328;11.026;2023-02-28T15:49:52;94349.41;;;7.93;33.94
39223;BME280;24936;46.328;11.026;2023-02-28T15:52:26;94351.28;;;7.70;33.93
39223;BME280;24936;46.328;11.026;2023-02-28T15:54:53;94346.13;;;7.47;34.26